createdAt,value
2018-07-09T00:00:01.184Z,16.04
2018-07-09T00:01:01.206Z,15.95
2018-07-09T00:02:01.226Z,15.77
2018-07-09T00:03:01.244Z,15.72
2018-07-09T00:04:01.264Z,15.77
2018-07-09T00:05:01.286Z,15.61
2018-07-09T00:06:01.305Z,15.83
2018-07-09T00:07:01.325Z,15.86
2018-07-09T00:08:01.345Z,15.75
2018-07-09T00:09:01.360Z,15.72
2018-07-09T00:10:01.382Z,15.83
2018-07-09T00:11:01.405Z,15.67
2018-07-09T00:12:01.421Z,15.49
2018-07-09T00:13:01.438Z,15.43
2018-07-09T00:14:01.467Z,15.51
2018-07-09T00:15:01.485Z,15.59
2018-07-09T00:16:01.499Z,15.59
2018-07-09T00:17:01.529Z,15.49
2018-07-09T00:18:01.541Z,15.21
2018-07-09T00:19:01.563Z,15.11
2018-07-09T00:20:01.583Z,15.47
2018-07-09T00:21:01.601Z,15.58
2018-07-09T00:22:01.619Z,15.76
2018-07-09T00:23:01.637Z,15.55
2018-07-09T00:24:01.663Z,15.57
2018-07-09T00:25:01.677Z,15.47
2018-07-09T00:26:01.695Z,15.37
2018-07-09T00:27:01.715Z,15.29
2018-07-09T00:28:01.736Z,15.42
2018-07-09T00:29:01.757Z,15.58
2018-07-09T00:30:01.776Z,15.70
2018-07-09T00:31:01.804Z,15.92
2018-07-09T00:32:01.817Z,15.95
2018-07-09T00:33:01.837Z,16.02
2018-07-09T00:34:01.856Z,15.95
2018-07-09T00:35:01.869Z,16.21
2018-07-09T00:36:01.902Z,16.10
2018-07-09T00:37:01.917Z,16.24
2018-07-09T00:38:01.936Z,16.28
2018-07-09T00:39:01.952Z,16.28
2018-07-09T00:40:01.973Z,16.32
2018-07-09T00:41:01.989Z,16.17
2018-07-09T00:42:02.013Z,16.24
2018-07-09T00:43:02.025Z,16.31
2018-07-09T00:44:02.060Z,16.41
2018-07-09T00:45:02.063Z,16.05
2018-07-09T00:46:02.089Z,16.15
2018-07-09T00:47:02.108Z,16.16
2018-07-09T00:48:02.126Z,16.26
2018-07-09T00:49:02.148Z,16.15
2018-07-09T00:50:02.168Z,15.91
2018-07-09T00:51:02.239Z,15.33
2018-07-09T00:52:02.205Z,14.89
2018-07-09T00:53:02.228Z,14.66
2018-07-09T00:54:02.249Z,14.50
2018-07-09T00:55:02.258Z,14.20
2018-07-09T00:56:02.281Z,14.54
2018-07-09T00:57:02.307Z,14.84
2018-07-09T00:58:02.324Z,14.88
2018-07-09T00:59:02.353Z,15.04
2018-07-09T01:00:02.359Z,14.86
2018-07-09T01:01:02.386Z,14.53
2018-07-09T01:02:02.398Z,14.30
2018-07-09T01:03:02.418Z,14.18
2018-07-09T01:04:02.435Z,13.99
2018-07-09T01:05:02.455Z,13.83
2018-07-09T01:06:02.477Z,13.79
2018-07-09T01:07:02.499Z,13.86
2018-07-09T01:08:02.515Z,13.74
2018-07-09T01:09:02.540Z,13.74
2018-07-09T01:10:02.552Z,13.87
2018-07-09T01:11:02.604Z,14.17
2018-07-09T01:12:02.593Z,14.15
2018-07-09T01:13:02.611Z,14.14
2018-07-09T01:14:02.631Z,14.32
2018-07-09T01:15:02.651Z,14.29
2018-07-09T01:16:02.669Z,14.32
2018-07-09T01:17:02.687Z,14.44
2018-07-09T01:18:02.710Z,14.23
2018-07-09T01:19:02.731Z,14.17
2018-07-09T01:20:02.747Z,14.20
2018-07-09T01:21:02.765Z,14.22
2018-07-09T01:22:02.786Z,14.18
2018-07-09T01:23:02.801Z,14.08
2018-07-09T01:24:02.824Z,14.12
2018-07-09T01:25:02.843Z,14.20
2018-07-09T01:26:02.864Z,14.11
2018-07-09T01:27:02.885Z,14.11
2018-07-09T01:28:02.898Z,14.07
2018-07-09T01:29:02.918Z,14.04
2018-07-09T01:30:02.945Z,14.00
2018-07-09T01:31:02.954Z,13.97
2018-07-09T01:32:02.993Z,14.08
2018-07-09T01:33:02.993Z,14.05
2018-07-09T01:34:03.016Z,14.44
2018-07-09T01:35:03.033Z,14.68
2018-07-09T01:36:03.054Z,14.48
2018-07-09T01:37:03.071Z,14.37
2018-07-09T01:38:03.092Z,14.14
2018-07-09T01:39:03.110Z,14.22
2018-07-09T01:40:03.127Z,14.18
2018-07-09T01:41:03.159Z,14.14
2018-07-09T01:42:03.171Z,14.00
2018-07-09T01:43:03.205Z,13.86
2018-07-09T01:44:03.204Z,13.70
2018-07-09T01:45:03.222Z,13.52
2018-07-09T01:46:03.266Z,13.35
2018-07-09T01:47:03.261Z,13.44
2018-07-09T01:48:03.281Z,13.81
2018-07-09T01:49:03.303Z,13.71
2018-07-09T01:50:03.324Z,13.71
2018-07-09T01:51:03.338Z,13.93
2018-07-09T01:52:03.363Z,14.11
2018-07-09T01:53:03.378Z,14.07
2018-07-09T01:54:03.396Z,13.99
2018-07-09T01:55:03.420Z,14.12
2018-07-09T01:56:03.434Z,14.05
2018-07-09T01:57:03.458Z,14.17
2018-07-09T01:58:03.473Z,14.28
2018-07-09T01:59:03.489Z,14.30
2018-07-09T02:00:03.511Z,13.97
2018-07-09T02:01:03.530Z,13.86
2018-07-09T02:02:03.552Z,13.75
2018-07-09T02:03:03.568Z,13.63
2018-07-09T02:04:03.591Z,13.25
2018-07-09T02:05:03.628Z,13.30
2018-07-09T02:06:03.624Z,13.56
2018-07-09T02:07:03.644Z,13.71
2018-07-09T02:08:03.664Z,13.83
2018-07-09T02:09:03.683Z,13.95
2018-07-09T02:10:03.699Z,13.83
2018-07-09T02:11:03.718Z,13.81
2018-07-09T02:12:03.736Z,13.93
2018-07-09T02:13:03.755Z,13.67
2018-07-09T02:14:03.776Z,13.75
2018-07-09T02:15:03.800Z,13.72
2018-07-09T02:16:03.812Z,13.97
2018-07-09T02:17:03.835Z,14.12
2018-07-09T02:18:03.853Z,14.26
2018-07-09T02:19:03.875Z,14.48
2018-07-09T02:20:03.888Z,14.62
2018-07-09T02:21:03.917Z,14.69
2018-07-09T02:22:03.933Z,14.77
2018-07-09T02:23:03.946Z,14.82
2018-07-09T02:24:03.964Z,14.88
2018-07-09T02:25:03.984Z,14.88
2018-07-09T02:26:04.004Z,14.92
2018-07-09T02:27:04.035Z,14.91
2018-07-09T02:28:04.045Z,15.00
2018-07-09T02:29:04.063Z,15.03
2018-07-09T02:30:04.082Z,14.96
2018-07-09T02:31:04.097Z,14.78
2018-07-09T02:32:04.119Z,14.69
2018-07-09T02:33:04.135Z,14.66
2018-07-09T02:34:04.165Z,14.45
2018-07-09T02:35:04.176Z,14.48
2018-07-09T02:36:04.192Z,14.26
2018-07-09T02:37:04.214Z,14.36
2018-07-09T02:38:04.233Z,14.07
2018-07-09T02:39:04.257Z,14.25
2018-07-09T02:40:04.267Z,14.22
2018-07-09T02:41:04.288Z,14.05
2018-07-09T02:42:04.307Z,14.12
2018-07-09T02:43:04.329Z,14.10
2018-07-09T02:44:04.349Z,14.26
2018-07-09T02:45:04.364Z,14.33
2018-07-09T02:46:04.381Z,14.50
2018-07-09T02:47:04.407Z,14.50
2018-07-09T02:48:04.422Z,14.44
2018-07-09T02:49:04.493Z,14.58
2018-07-09T02:50:04.457Z,14.65
2018-07-09T02:51:04.478Z,14.69
2018-07-09T02:52:04.502Z,14.92
2018-07-09T02:53:04.517Z,14.96
2018-07-09T02:54:04.538Z,14.89
2018-07-09T02:55:04.557Z,14.63
2018-07-09T02:56:04.575Z,14.30
2018-07-09T02:57:04.606Z,14.05
2018-07-09T02:58:04.613Z,13.99
2018-07-09T02:59:04.637Z,13.81
2018-07-09T03:00:04.646Z,13.72
2018-07-09T03:01:04.851Z,13.62
2018-07-09T03:02:04.694Z,13.56
2018-07-09T03:03:04.704Z,13.72
2018-07-09T03:04:04.727Z,13.81
2018-07-09T03:05:04.746Z,13.86
2018-07-09T03:06:04.789Z,13.78
2018-07-09T03:07:04.780Z,13.81
2018-07-09T03:08:04.806Z,13.93
2018-07-09T03:09:04.820Z,14.08
2018-07-09T03:10:04.843Z,14.14
2018-07-09T03:11:04.858Z,14.30
2018-07-09T03:12:04.887Z,14.59
2018-07-09T03:13:04.897Z,14.68
2018-07-09T03:14:04.915Z,14.89
2018-07-09T03:15:04.939Z,14.85
2018-07-09T03:16:04.955Z,14.97
2018-07-09T03:17:04.983Z,15.07
2018-07-09T03:18:05.002Z,15.15
2018-07-09T03:19:05.087Z,15.29
2018-07-09T03:20:05.029Z,15.25
2018-07-09T03:21:05.054Z,15.39
2018-07-09T03:22:05.069Z,15.46
2018-07-09T03:23:05.093Z,15.62
2018-07-09T03:24:05.106Z,15.73
2018-07-09T03:25:05.124Z,15.91
2018-07-09T03:26:05.146Z,15.86
2018-07-09T03:27:05.164Z,16.13
2018-07-09T03:28:05.192Z,16.21
2018-07-09T03:29:05.205Z,16.17
2018-07-09T03:30:05.229Z,16.23
2018-07-09T03:31:05.245Z,16.24
2018-07-09T03:32:05.259Z,16.31
2018-07-09T03:33:05.285Z,16.26
2018-07-09T03:34:05.306Z,16.43
2018-07-09T03:35:05.322Z,16.61
2018-07-09T03:36:05.338Z,16.74
2018-07-09T03:37:05.355Z,16.71
2018-07-09T03:38:05.383Z,16.86
2018-07-09T03:39:05.397Z,16.86
2018-07-09T03:40:05.417Z,16.94
2018-07-09T03:41:05.439Z,16.94
2018-07-09T03:42:05.452Z,16.99
2018-07-09T03:43:05.482Z,17.09
2018-07-09T03:44:05.499Z,17.22
2018-07-09T03:45:05.521Z,17.38
2018-07-09T03:46:05.540Z,17.15
2018-07-09T03:47:05.576Z,17.15
2018-07-09T03:48:05.588Z,17.33
2018-07-09T03:49:05.593Z,17.31
2018-07-09T03:50:05.619Z,17.20
2018-07-09T03:51:05.636Z,17.06
2018-07-09T03:52:05.651Z,17.27
2018-07-09T03:53:05.676Z,17.27
2018-07-09T03:54:05.695Z,17.36
2018-07-09T03:55:05.710Z,17.41
2018-07-09T03:56:05.734Z,17.29
2018-07-09T03:57:05.762Z,17.30
2018-07-09T03:58:05.771Z,17.36
2018-07-09T03:59:05.798Z,17.42
2018-07-09T04:00:05.812Z,17.23
2018-07-09T04:01:05.837Z,17.51
2018-07-09T04:02:05.854Z,17.52
2018-07-09T04:03:05.876Z,17.42
2018-07-09T04:04:05.901Z,17.51
2018-07-09T04:05:05.912Z,17.56
2018-07-09T04:06:05.929Z,17.65
2018-07-09T04:07:05.955Z,17.82
2018-07-09T04:08:05.968Z,17.83
2018-07-09T04:09:06.045Z,17.76
2018-07-09T04:10:06.010Z,17.63
2018-07-09T04:11:06.028Z,17.65
2018-07-09T04:12:06.047Z,17.70
2018-07-09T04:13:06.073Z,17.74
2018-07-09T04:14:06.093Z,17.79
2018-07-09T04:15:06.109Z,17.87
2018-07-09T04:16:06.128Z,17.65
2018-07-09T04:17:06.149Z,17.78
2018-07-09T04:18:06.175Z,17.74
2018-07-09T04:19:06.192Z,17.76
2018-07-09T04:20:06.208Z,17.56
2018-07-09T04:21:06.227Z,17.49
2018-07-09T04:22:06.256Z,17.79
2018-07-09T04:23:06.274Z,17.57
2018-07-09T04:24:06.292Z,17.49
2018-07-09T04:25:06.308Z,17.74
2018-07-09T04:26:06.334Z,17.98
2018-07-09T04:27:06.349Z,18.13
2018-07-09T04:28:06.372Z,18.04
2018-07-09T04:29:06.390Z,18.28
2018-07-09T04:30:06.421Z,18.15
2018-07-09T04:31:06.432Z,18.28
2018-07-09T04:32:06.456Z,18.41
2018-07-09T04:33:06.475Z,18.52
2018-07-09T04:34:06.501Z,18.60
2018-07-09T04:35:06.522Z,18.58
2018-07-09T04:36:06.530Z,18.80
2018-07-09T04:37:06.554Z,18.90
2018-07-09T04:38:06.580Z,18.68
2018-07-09T04:39:06.596Z,18.55
2018-07-09T04:40:06.614Z,18.66
2018-07-09T04:41:06.633Z,18.73
2018-07-09T04:42:06.660Z,18.55
2018-07-09T04:43:06.723Z,18.26
2018-07-09T04:44:06.699Z,18.38
2018-07-09T04:45:06.716Z,18.56
2018-07-09T04:46:06.743Z,18.53
2018-07-09T04:47:06.757Z,18.66
2018-07-09T04:48:06.782Z,18.71
2018-07-09T04:49:06.797Z,18.90
2018-07-09T04:50:06.822Z,18.59
2018-07-09T04:51:06.838Z,18.71
2018-07-09T04:52:06.860Z,18.86
2018-07-09T04:53:06.880Z,18.89
2018-07-09T04:54:06.901Z,18.60
2018-07-09T04:55:06.921Z,18.56
2018-07-09T04:56:06.950Z,18.84
2018-07-09T04:57:06.963Z,18.78
2018-07-09T04:58:06.985Z,18.66
2018-07-09T04:59:07.009Z,18.93
2018-07-09T05:00:07.031Z,18.98
2018-07-09T05:01:07.048Z,18.84
2018-07-09T05:02:07.080Z,19.00
2018-07-09T05:03:07.091Z,18.70
2018-07-09T05:04:07.123Z,18.99
2018-07-09T05:05:07.134Z,19.21
2018-07-09T05:06:07.159Z,19.34
2018-07-09T05:07:07.175Z,19.52
2018-07-09T05:08:07.196Z,19.36
2018-07-09T05:09:07.210Z,19.34
2018-07-09T05:10:07.243Z,19.19
2018-07-09T05:11:07.250Z,19.19
2018-07-09T05:12:07.277Z,18.99
2018-07-09T05:13:07.360Z,19.41
2018-07-09T05:14:07.320Z,19.18
2018-07-09T05:15:07.358Z,19.39
2018-07-09T05:16:07.365Z,19.49
2018-07-09T05:17:07.387Z,19.85
2018-07-09T05:18:07.406Z,19.37
2018-07-09T05:19:07.438Z,19.26
2018-07-09T05:20:07.449Z,19.36
2018-07-09T05:21:07.468Z,19.36
2018-07-09T05:22:07.533Z,19.71
2018-07-09T05:23:07.735Z,20.74
2018-07-09T05:24:07.540Z,22.04
2018-07-09T05:25:07.550Z,22.50
2018-07-09T05:26:07.579Z,23.61
2018-07-09T05:27:07.596Z,23.62
2018-07-09T05:28:07.624Z,23.81
2018-07-09T05:29:07.655Z,24.36
2018-07-09T05:30:07.667Z,25.07
2018-07-09T05:31:07.692Z,24.86
2018-07-09T05:32:07.713Z,25.33
2018-07-09T05:33:07.741Z,24.36
2018-07-09T05:34:07.761Z,23.84
2018-07-09T05:35:07.792Z,23.76
2018-07-09T05:36:07.811Z,25.14
2018-07-09T05:37:07.840Z,26.51
2018-07-09T05:38:07.863Z,27.47
2018-07-09T05:39:07.892Z,26.96
2018-07-09T05:40:07.956Z,26.68
2018-07-09T05:41:07.961Z,27.22
2018-07-09T05:42:07.991Z,28.11
2018-07-09T05:43:08.008Z,28.81
2018-07-09T05:44:08.028Z,28.10
2018-07-09T05:45:08.049Z,27.95
2018-07-09T05:46:08.081Z,27.92
2018-07-09T05:47:08.107Z,27.87
2018-07-09T05:48:08.155Z,27.92
2018-07-09T05:49:08.155Z,27.17
2018-07-09T05:50:08.187Z,26.93
2018-07-09T05:51:08.210Z,26.47
2018-07-09T05:52:08.240Z,26.70
2018-07-09T05:53:08.270Z,27.02
2018-07-09T05:54:08.300Z,26.97
2018-07-09T05:55:08.328Z,25.90
2018-07-09T05:56:08.342Z,25.35
2018-07-09T05:57:08.380Z,24.16
2018-07-09T05:58:08.418Z,23.88
2018-07-09T05:59:08.426Z,24.38
2018-07-09T06:00:08.452Z,25.17
2018-07-09T06:01:08.481Z,26.07
2018-07-09T06:02:08.510Z,27.44
2018-07-09T06:03:08.551Z,28.74
2018-07-09T06:04:08.555Z,28.98
2018-07-09T06:05:08.587Z,29.24
2018-07-09T06:06:08.620Z,29.73
2018-07-09T06:07:08.647Z,29.27
2018-07-09T06:08:08.666Z,29.54
2018-07-09T06:09:08.690Z,28.97
2018-07-09T06:10:08.727Z,29.32
2018-07-09T06:11:08.784Z,28.97
2018-07-09T06:12:08.778Z,30.35
2018-07-09T06:13:08.816Z,29.98
2018-07-09T06:14:08.841Z,30.81
2018-07-09T06:15:08.868Z,30.73
2018-07-09T06:16:08.896Z,30.87
2018-07-09T06:17:08.923Z,30.85
2018-07-09T06:18:08.957Z,31.33
2018-07-09T06:19:08.984Z,29.95
2018-07-09T06:20:09.009Z,29.10
2018-07-09T06:21:09.056Z,30.37
2018-07-09T06:22:09.082Z,30.75
2018-07-09T06:23:09.113Z,30.18
2018-07-09T06:24:09.136Z,30.75
2018-07-09T06:25:09.182Z,30.55
2018-07-09T06:26:09.193Z,31.66
2018-07-09T06:27:09.220Z,31.71
2018-07-09T06:28:09.262Z,31.78
2018-07-09T06:29:09.278Z,32.18
2018-07-09T06:30:09.325Z,32.12
2018-07-09T06:31:09.347Z,32.11
2018-07-09T06:32:09.379Z,31.73
2018-07-09T06:33:09.405Z,31.47
2018-07-09T06:34:09.452Z,31.47
2018-07-09T06:35:09.465Z,31.55
2018-07-09T06:36:09.507Z,31.06
2018-07-09T06:37:09.533Z,31.52
2018-07-09T06:38:09.573Z,31.46
2018-07-09T06:39:09.593Z,31.58
2018-07-09T06:40:09.632Z,31.43
2018-07-09T06:41:09.645Z,30.48
2018-07-09T06:42:09.697Z,29.61
2018-07-09T06:43:09.709Z,28.82
2018-07-09T06:44:09.737Z,30.48
2018-07-09T06:45:09.779Z,30.81
2018-07-09T06:46:09.810Z,31.85
2018-07-09T06:47:09.837Z,32.08
2018-07-09T06:48:09.865Z,31.85
2018-07-09T06:49:09.894Z,32.31
2018-07-09T06:50:09.998Z,32.19
2018-07-09T06:51:09.965Z,31.90
2018-07-09T06:52:09.988Z,31.73
2018-07-09T06:53:10.016Z,32.04
2018-07-09T06:54:10.049Z,31.96
2018-07-09T06:55:10.085Z,30.83
2018-07-09T06:56:10.123Z,31.21
2018-07-09T06:57:10.142Z,31.07
2018-07-09T06:58:10.167Z,31.37
2018-07-09T06:59:10.210Z,32.31
2018-07-09T07:00:10.246Z,33.07
2018-07-09T07:01:10.268Z,31.80
2018-07-09T07:02:10.305Z,30.30
2018-07-09T07:03:10.344Z,30.24
2018-07-09T07:04:10.367Z,30.88
2018-07-09T07:05:10.391Z,31.29
2018-07-09T07:06:10.419Z,31.42
2018-07-09T07:07:10.477Z,31.71
2018-07-09T07:08:10.482Z,32.18
2018-07-09T07:09:10.657Z,31.77
2018-07-09T07:10:10.563Z,31.80
2018-07-09T07:11:10.588Z,31.89
2018-07-09T07:12:10.616Z,32.21
2018-07-09T07:13:10.650Z,31.15
2018-07-09T07:14:10.677Z,30.43
2018-07-09T07:15:10.731Z,29.56
2018-07-09T07:16:10.730Z,29.66
2018-07-09T07:17:10.769Z,29.04
2018-07-09T07:18:10.797Z,29.38
2018-07-09T07:19:10.844Z,30.16
2018-07-09T07:20:10.857Z,29.01
2018-07-09T07:21:10.885Z,29.29
2018-07-09T07:22:10.914Z,28.25
2018-07-09T07:23:10.944Z,27.73
2018-07-09T07:24:10.966Z,28.74
2018-07-09T07:25:11.000Z,28.51
2018-07-09T07:26:11.033Z,30.39
2018-07-09T07:27:11.076Z,31.25
2018-07-09T07:28:11.102Z,30.99
2018-07-09T07:29:11.116Z,30.81
2018-07-09T07:30:11.144Z,29.71
2018-07-09T07:31:11.170Z,29.45
2018-07-09T07:32:11.218Z,30.92
2018-07-09T07:33:11.233Z,32.03
2018-07-09T07:34:11.257Z,32.87
2018-07-09T07:35:11.288Z,32.96
2018-07-09T07:36:11.319Z,31.29
2018-07-09T07:37:11.344Z,31.49
2018-07-09T07:38:11.373Z,32.65
2018-07-09T07:39:11.409Z,33.45
2018-07-09T07:40:11.433Z,31.96
2018-07-09T07:41:11.464Z,32.63
2018-07-09T07:42:11.494Z,30.92
2018-07-09T07:43:11.528Z,31.28
2018-07-09T07:44:11.564Z,32.33
2018-07-09T07:45:11.576Z,31.14
2018-07-09T07:46:11.609Z,31.27
2018-07-09T07:47:11.637Z,30.84
2018-07-09T07:48:11.670Z,32.19
2018-07-09T07:49:11.702Z,32.92
2018-07-09T07:50:11.794Z,31.56
2018-07-09T07:51:11.765Z,32.08
2018-07-09T07:52:11.810Z,31.55
2018-07-09T07:53:11.822Z,31.36
2018-07-09T07:54:11.852Z,31.87
2018-07-09T07:55:11.873Z,32.60
2018-07-09T07:56:11.917Z,33.23
2018-07-09T07:57:11.943Z,32.82
2018-07-09T07:58:11.978Z,32.90
2018-07-09T07:59:12.008Z,32.92
2018-07-09T08:00:12.031Z,32.18
2018-07-09T08:01:12.085Z,30.96
2018-07-09T08:02:12.089Z,31.43
2018-07-09T08:03:12.119Z,31.22
2018-07-09T08:04:12.143Z,32.16
2018-07-09T08:05:12.179Z,31.70
2018-07-09T08:06:12.211Z,31.27
2018-07-09T08:07:12.240Z,31.15
2018-07-09T08:08:12.264Z,30.87
2018-07-09T08:09:12.321Z,31.70
2018-07-09T08:10:12.357Z,32.56
2018-07-09T08:11:12.364Z,33.42
2018-07-09T08:13:00.551Z,33.74
2018-07-09T08:13:27.990Z,33.99
2018-07-09T08:14:12.451Z,33.36
2018-07-09T08:15:12.475Z,33.28
2018-07-09T08:16:12.520Z,34.29
2018-07-09T08:17:12.541Z,33.20
2018-07-09T08:18:12.567Z,31.85
2018-07-09T08:19:12.637Z,32.00
2018-07-09T08:20:12.633Z,32.70
2018-07-09T08:21:12.660Z,33.49
2018-07-09T08:22:12.719Z,33.15
2018-07-09T08:23:12.719Z,32.29
2018-07-09T08:24:12.777Z,31.33
2018-07-09T08:25:12.808Z,31.56
2018-07-09T08:26:12.808Z,32.75
2018-07-09T08:27:12.849Z,33.76
2018-07-09T08:28:12.864Z,33.95
2018-07-09T08:29:12.898Z,33.15
2018-07-09T08:30:12.918Z,33.43
2018-07-09T08:31:13.119Z,33.98
2018-07-09T08:32:12.979Z,33.77
2018-07-09T08:33:13.021Z,33.68
2018-07-09T08:34:13.031Z,33.67
2018-07-09T08:35:13.072Z,33.42
2018-07-09T08:36:13.106Z,32.49
2018-07-09T08:37:13.123Z,31.89
2018-07-09T08:38:13.149Z,30.34
2018-07-09T08:39:13.179Z,29.59
2018-07-09T08:40:13.205Z,29.60
2018-07-09T08:41:13.231Z,29.84
2018-07-09T08:42:13.267Z,29.75
2018-07-09T08:43:13.290Z,29.32
2018-07-09T08:44:13.313Z,28.93
2018-07-09T08:45:13.340Z,29.65
2018-07-09T08:46:13.388Z,29.65
2018-07-09T08:47:13.394Z,29.45
2018-07-09T08:48:13.424Z,29.56
2018-07-09T08:49:13.457Z,29.53
2018-07-09T08:50:13.471Z,29.76
2018-07-09T08:51:13.503Z,29.17
2018-07-09T08:52:13.521Z,29.12
2018-07-09T08:53:13.542Z,28.44
2018-07-09T08:54:13.577Z,28.75
2018-07-09T08:55:13.621Z,28.51
2018-07-09T08:56:13.631Z,28.11
2018-07-09T08:57:13.649Z,28.15
2018-07-09T08:58:13.673Z,27.92
2018-07-09T08:59:13.710Z,28.07
2018-07-09T09:00:13.731Z,27.93
2018-07-09T09:01:13.765Z,28.45
2018-07-09T09:02:13.781Z,28.41
2018-07-09T09:03:13.807Z,28.25
2018-07-09T09:04:13.829Z,28.19
2018-07-09T09:05:13.857Z,27.86
2018-07-09T09:06:13.884Z,28.01
2018-07-09T09:07:13.923Z,27.33
2018-07-09T09:08:13.949Z,27.48
2018-07-09T09:09:13.958Z,27.27
2018-07-09T09:10:14.026Z,27.65
2018-07-09T09:11:14.008Z,27.85
2018-07-09T09:12:14.034Z,27.96
2018-07-09T09:13:14.053Z,27.25
2018-07-09T09:14:14.107Z,27.55
2018-07-09T09:15:14.108Z,27.51
2018-07-09T09:16:14.128Z,27.90
2018-07-09T09:17:14.152Z,27.26
2018-07-09T09:18:14.180Z,27.11
2018-07-09T09:19:14.199Z,27.30
2018-07-09T09:20:14.223Z,27.67
2018-07-09T09:21:14.268Z,28.19
2018-07-09T09:22:14.274Z,28.48
2018-07-09T09:23:14.308Z,28.51
2018-07-09T09:24:14.331Z,28.85
2018-07-09T09:25:14.349Z,29.16
2018-07-09T09:26:14.389Z,28.98
2018-07-09T09:27:14.403Z,29.27
2018-07-09T09:28:14.422Z,29.27
2018-07-09T09:29:14.445Z,28.91
2018-07-09T09:30:14.478Z,28.59
2018-07-09T09:31:14.583Z,28.52
2018-07-09T09:32:14.539Z,27.58
2018-07-09T09:33:14.570Z,27.40
2018-07-09T09:34:14.578Z,27.35
2018-07-09T09:35:14.617Z,27.49
2018-07-09T09:36:14.635Z,27.35
2018-07-09T09:37:14.659Z,27.77
2018-07-09T09:38:14.674Z,28.19
2018-07-09T09:39:14.697Z,28.25
2018-07-09T09:40:14.748Z,28.41
2018-07-09T09:41:14.749Z,28.44
2018-07-09T09:42:14.770Z,28.78
2018-07-09T09:43:14.896Z,29.49
2018-07-09T09:44:14.820Z,28.81
2018-07-09T09:45:14.856Z,28.48
2018-07-09T09:46:14.876Z,28.37
2018-07-09T09:47:14.904Z,28.56
2018-07-09T09:48:14.936Z,28.60
2018-07-09T09:49:14.974Z,28.81
2018-07-09T09:50:14.975Z,29.14
2018-07-09T09:51:15.000Z,29.22
2018-07-09T09:52:15.033Z,28.23
2018-07-09T09:53:15.047Z,28.79
2018-07-09T09:54:15.087Z,29.08
2018-07-09T09:55:15.109Z,28.63
2018-07-09T09:56:15.143Z,28.67
2018-07-09T09:57:15.149Z,28.05
2018-07-09T09:58:15.174Z,27.89
2018-07-09T09:59:15.207Z,27.58
2018-07-09T10:00:15.238Z,27.44
2018-07-09T10:01:15.259Z,27.39
2018-07-09T10:02:15.288Z,27.73
2018-07-09T10:03:15.304Z,27.92
2018-07-09T10:04:15.326Z,28.47
2018-07-09T10:05:15.364Z,28.79
2018-07-09T10:06:15.381Z,28.85
2018-07-09T10:07:15.422Z,28.74
2018-07-09T10:08:15.432Z,29.42
2018-07-09T10:09:15.460Z,29.12
2018-07-09T10:10:15.482Z,28.75
2018-07-09T10:11:15.524Z,28.96
2018-07-09T10:12:15.546Z,28.82
2018-07-09T10:13:15.558Z,28.70
2018-07-09T10:14:15.579Z,28.75
2018-07-09T10:15:15.614Z,29.16
2018-07-09T10:16:15.634Z,28.27
2018-07-09T10:17:15.669Z,28.72
2018-07-09T10:18:15.681Z,28.97
2018-07-09T10:19:15.716Z,28.70
2018-07-09T10:20:15.748Z,28.49
2018-07-09T10:21:15.770Z,29.05
2018-07-09T10:22:15.796Z,29.42
2018-07-09T10:23:15.855Z,29.05
2018-07-09T10:24:15.836Z,28.76
2018-07-09T10:25:15.866Z,28.79
2018-07-09T10:26:15.887Z,28.94
2018-07-09T10:27:15.930Z,28.88
2018-07-09T10:28:15.945Z,28.98
2018-07-09T10:29:15.964Z,28.96
2018-07-09T10:30:15.986Z,28.88
2018-07-09T10:31:16.016Z,29.01
2018-07-09T10:32:16.040Z,28.94
2018-07-09T10:33:16.106Z,29.08
2018-07-09T10:34:16.087Z,29.20
2018-07-09T10:35:16.124Z,28.75
2018-07-09T10:36:16.146Z,28.78
2018-07-09T10:37:16.164Z,28.72
2018-07-09T10:38:16.194Z,28.76
2018-07-09T10:39:16.215Z,27.77
2018-07-09T10:40:16.247Z,27.82
2018-07-09T10:41:16.276Z,27.92
2018-07-09T10:42:16.291Z,28.51
2018-07-09T10:43:16.317Z,28.82
2018-07-09T10:44:16.355Z,28.79
2018-07-09T10:45:16.377Z,28.66
2018-07-09T10:46:16.408Z,28.48
2018-07-09T10:47:16.427Z,28.84
2018-07-09T10:48:16.449Z,28.48
2018-07-09T10:49:16.483Z,28.59
2018-07-09T10:50:16.503Z,28.38
2018-07-09T10:51:16.531Z,28.49
2018-07-09T10:52:16.552Z,28.25
2018-07-09T10:53:16.576Z,28.25
2018-07-09T10:54:16.598Z,28.51
2018-07-09T10:55:16.705Z,28.23
2018-07-09T10:56:16.655Z,28.10
2018-07-09T10:57:16.680Z,28.22
2018-07-09T10:58:16.700Z,28.15
2018-07-09T10:59:16.732Z,27.54
2018-07-09T11:00:16.749Z,27.77
2018-07-09T11:01:16.778Z,27.51
2018-07-09T11:02:16.810Z,27.15
2018-07-09T11:03:16.823Z,27.48
2018-07-09T11:04:16.852Z,27.26
2018-07-09T11:05:16.871Z,26.81
2018-07-09T11:06:16.905Z,26.06
2018-07-09T11:07:16.928Z,26.18
2018-07-09T11:08:16.948Z,26.05
2018-07-09T11:09:16.968Z,25.93
2018-07-09T11:10:16.999Z,25.80
2018-07-09T11:11:17.018Z,25.68
2018-07-09T11:12:17.043Z,25.25
2018-07-09T11:13:17.082Z,25.35
2018-07-09T11:14:17.106Z,25.23
2018-07-09T11:15:17.126Z,25.16
2018-07-09T11:16:17.241Z,25.31
2018-07-09T11:17:17.175Z,25.22
2018-07-09T11:18:17.191Z,25.40
2018-07-09T11:19:17.214Z,25.26
2018-07-09T11:20:17.234Z,24.93
2018-07-09T11:21:17.292Z,24.95
2018-07-09T11:22:17.292Z,24.93
2018-07-09T11:23:17.319Z,25.18
2018-07-09T11:24:17.333Z,25.33
2018-07-09T11:25:17.365Z,25.06
2018-07-09T11:26:17.391Z,25.62
2018-07-09T11:27:17.411Z,25.98
2018-07-09T11:28:17.431Z,26.52
2018-07-09T11:29:17.532Z,26.37
2018-07-09T11:30:17.481Z,26.48
2018-07-09T11:31:17.506Z,26.03
2018-07-09T11:32:17.538Z,26.06
2018-07-09T11:33:17.545Z,26.07
2018-07-09T11:34:17.574Z,25.78
2018-07-09T11:35:17.602Z,25.59
2018-07-09T11:36:17.627Z,25.73
2018-07-09T11:37:17.668Z,26.06
2018-07-09T11:38:17.668Z,25.99
2018-07-09T11:39:17.687Z,26.03
2018-07-09T11:40:17.712Z,26.43
2018-07-09T11:41:17.742Z,25.96
2018-07-09T11:42:17.761Z,25.69
2018-07-09T11:43:17.788Z,25.81
2018-07-09T11:44:17.815Z,25.78
2018-07-09T11:45:17.832Z,25.93
2018-07-09T11:46:17.859Z,25.14
2018-07-09T11:47:17.879Z,25.03
2018-07-09T11:48:17.900Z,24.93
2018-07-09T11:49:17.926Z,25.04
2018-07-09T11:50:17.956Z,24.69
2018-07-09T11:51:17.978Z,24.36
2018-07-09T11:52:17.995Z,24.20
2018-07-09T11:53:18.018Z,24.42
2018-07-09T11:54:18.045Z,24.61
2018-07-09T11:55:18.071Z,24.80
2018-07-09T11:56:18.094Z,24.73
2018-07-09T11:57:18.113Z,25.16
2018-07-09T11:58:18.149Z,24.70
2018-07-09T11:59:18.166Z,24.98
2018-07-09T12:00:18.189Z,24.92
2018-07-09T12:01:18.208Z,25.11
2018-07-09T12:02:18.232Z,25.43
2018-07-09T12:03:18.258Z,25.21
2018-07-09T12:04:18.300Z,25.99
2018-07-09T12:05:18.311Z,25.93
2018-07-09T12:06:18.328Z,25.81
2018-07-09T12:07:18.346Z,26.15
2018-07-09T12:08:18.394Z,26.21
2018-07-09T12:09:18.410Z,25.26
2018-07-09T12:10:18.421Z,24.95
2018-07-09T12:11:18.468Z,25.62
2018-07-09T12:12:18.468Z,25.55
2018-07-09T12:13:18.497Z,25.95
2018-07-09T12:14:18.520Z,25.66
2018-07-09T12:15:18.543Z,25.46
2018-07-09T12:16:18.565Z,25.83
2018-07-09T12:17:18.600Z,25.93
2018-07-09T12:18:18.618Z,26.06
2018-07-09T12:19:18.640Z,25.62
2018-07-09T12:20:18.683Z,25.26
2018-07-09T12:21:18.700Z,25.26
2018-07-09T12:22:18.713Z,25.38
2018-07-09T12:23:18.738Z,25.48
2018-07-09T12:24:18.754Z,25.16
2018-07-09T12:25:18.779Z,25.18
2018-07-09T12:26:18.801Z,25.28
2018-07-09T12:27:18.829Z,25.17
2018-07-09T12:28:18.857Z,25.04
2018-07-09T12:29:18.876Z,25.16
2018-07-09T12:30:18.898Z,24.81
2018-07-09T12:31:18.919Z,24.63
2018-07-09T12:32:18.964Z,24.55
2018-07-09T12:33:18.977Z,24.42
2018-07-09T12:34:18.993Z,24.54
2018-07-09T12:35:19.024Z,24.89
2018-07-09T12:36:19.153Z,24.73
2018-07-09T12:37:19.064Z,24.65
2018-07-09T12:38:19.088Z,24.88
2018-07-09T12:39:19.133Z,24.61
2018-07-09T12:40:19.139Z,24.65
2018-07-09T12:41:19.152Z,24.69
2018-07-09T12:42:19.186Z,25.04
2018-07-09T12:43:19.200Z,25.13
2018-07-09T12:44:19.228Z,24.86
2018-07-09T12:45:19.264Z,25.18
2018-07-09T12:46:19.274Z,25.41
2018-07-09T12:47:19.331Z,25.68
2018-07-09T12:48:19.315Z,25.73
2018-07-09T12:49:19.342Z,25.68
2018-07-09T12:50:19.365Z,24.99
2018-07-09T12:51:19.390Z,25.53
2018-07-09T12:52:19.429Z,26.18